sensor_id;sensor_type;location;lat;lon;timestamp;P1;durP1;ratioP1;P2;durP2;ratioP2
27728;SDS011;15126;42.186;24.340;2023-05-27T00:00:09;6.70;;;5.53;;
27728;SDS011;15126;42.186;24.340;2023-05-27T00:02:37;5.83;;;5.20;;
27728;SDS011;15126;42.186;24.340;2023-05-27T00:05:04;7.10;;;6.40;;
27728;SDS011;15126;42.186;24.340;2023-05-27T00:07:31;6.10;;;5.50;;
27728;SDS011;15126;42.186;24.340;2023-05-27T00:09:58;7.93;;;6.40;;
27728;SDS011;15126;42.186;24.340;2023-05-27T00:12:24;9.00;;;6.33;;
27728;SDS011;15126;42.186;24.340;2023-05-27T00:14:53;6.70;;;6.10;;
27728;SDS011;15126;42.186;24.340;2023-05-27T00:17:20;8.13;;;5.60;;
27728;SDS011;15126;42.186;24.340;2023-05-27T00:19:47;6.67;;;6.07;;
27728;SDS011;15126;42.186;24.340;2023-05-27T00:22:14;6.30;;;5.60;;
27728;SDS011;15126;42.186;24.340;2023-05-27T00:24:41;7.70;;;5.80;;
27728;SDS011;15126;42.186;24.340;2023-05-27T00:27:08;11.87;;;6.03;;
27728;SDS011;15126;42.186;24.340;2023-05-27T00:29:36;7.63;;;7.00;;
27728;SDS011;15126;42.186;24.340;2023-05-27T00:32:04;7.23;;;6.40;;
27728;SDS011;15126;42.186;24.340;2023-05-27T00:34:31;6.83;;;6.10;;
27728;SDS011;15126;42.186;24.340;2023-05-27T00:36:59;6.67;;;5.97;;
27728;SDS011;15126;42.186;24.340;2023-05-27T00:39:26;7.27;;;5.80;;
27728;SDS011;15126;42.186;24.340;2023-05-27T00:41:53;7.53;;;5.97;;
27728;SDS011;15126;42.186;24.340;2023-05-27T00:44:20;12.60;;;6.63;;
27728;SDS011;15126;42.186;24.340;2023-05-27T00:46:47;6.70;;;6.20;;
27728;SDS011;15126;42.186;24.340;2023-05-27T00:49:16;8.60;;;6.67;;
27728;SDS011;15126;42.186;24.340;2023-05-27T00:51:44;9.50;;;7.10;;
27728;SDS011;15126;42.186;24.340;2023-05-27T00:54:11;7.67;;;6.70;;
27728;SDS011;15126;42.186;24.340;2023-05-27T00:56:38;7.83;;;6.70;;
27728;SDS011;15126;42.186;24.340;2023-05-27T00:59:05;8.80;;;6.47;;
27728;SDS011;15126;42.186;24.340;2023-05-27T01:01:32;6.23;;;5.73;;
27728;SDS011;15126;42.186;24.340;2023-05-27T01:04:01;6.33;;;5.87;;
27728;SDS011;15126;42.186;24.340;2023-05-27T01:06:33;5.73;;;5.30;;
27728;SDS011;15126;42.186;24.340;2023-05-27T01:09:09;6.30;;;5.80;;
27728;SDS011;15126;42.186;24.340;2023-05-27T01:11:41;7.03;;;6.30;;
27728;SDS011;15126;42.186;24.340;2023-05-27T01:14:12;7.30;;;5.53;;
27728;SDS011;15126;42.186;24.340;2023-05-27T01:16:40;8.57;;;6.53;;
27728;SDS011;15126;42.186;24.340;2023-05-27T01:19:11;8.60;;;6.53;;
27728;SDS011;15126;42.186;24.340;2023-05-27T01:21:41;9.60;;;7.20;;
27728;SDS011;15126;42.186;24.340;2023-05-27T01:24:13;13.70;;;7.13;;
27728;SDS011;15126;42.186;24.340;2023-05-27T01:26:40;7.03;;;6.43;;
27728;SDS011;15126;42.186;24.340;2023-05-27T01:29:07;6.47;;;5.87;;
27728;SDS011;15126;42.186;24.340;2023-05-27T01:31:35;7.60;;;6.87;;
27728;SDS011;15126;42.186;24.340;2023-05-27T01:34:14;7.80;;;7.00;;
27728;SDS011;15126;42.186;24.340;2023-05-27T01:36:48;10.60;;;6.73;;
27728;SDS011;15126;42.186;24.340;2023-05-27T01:39:22;7.80;;;7.00;;
27728;SDS011;15126;42.186;24.340;2023-05-27T01:41:50;7.87;;;6.00;;
27728;SDS011;15126;42.186;24.340;2023-05-27T01:44:19;6.80;;;6.20;;
27728;SDS011;15126;42.186;24.340;2023-05-27T01:46:46;7.47;;;6.77;;
27728;SDS011;15126;42.186;24.340;2023-05-27T01:49:13;7.37;;;6.60;;
27728;SDS011;15126;42.186;24.340;2023-05-27T01:51:40;8.97;;;6.70;;
27728;SDS011;15126;42.186;24.340;2023-05-27T01:54:07;7.00;;;6.30;;
27728;SDS011;15126;42.186;24.340;2023-05-27T01:56:35;8.40;;;6.13;;
27728;SDS011;15126;42.186;24.340;2023-05-27T01:59:01;8.80;;;7.00;;
27728;SDS011;15126;42.186;24.340;2023-05-27T02:01:28;8.83;;;7.13;;
27728;SDS011;15126;42.186;24.340;2023-05-27T02:03:56;9.20;;;6.67;;
27728;SDS011;15126;42.186;24.340;2023-05-27T02:06:22;7.70;;;7.00;;
27728;SDS011;15126;42.186;24.340;2023-05-27T02:08:50;7.23;;;6.37;;
27728;SDS011;15126;42.186;24.340;2023-05-27T02:11:17;7.93;;;6.83;;
27728;SDS011;15126;42.186;24.340;2023-05-27T02:13:45;13.40;;;6.50;;
27728;SDS011;15126;42.186;24.340;2023-05-27T02:16:12;7.90;;;6.97;;
27728;SDS011;15126;42.186;24.340;2023-05-27T02:18:39;12.67;;;6.23;;
27728;SDS011;15126;42.186;24.340;2023-05-27T02:21:06;6.40;;;5.90;;
27728;SDS011;15126;42.186;24.340;2023-05-27T02:23:33;7.07;;;6.30;;
27728;SDS011;15126;42.186;24.340;2023-05-27T02:26:01;7.93;;;6.33;;
27728;SDS011;15126;42.186;24.340;2023-05-27T02:28:28;8.13;;;6.83;;
27728;SDS011;15126;42.186;24.340;2023-05-27T02:30:56;7.17;;;6.50;;
27728;SDS011;15126;42.186;24.340;2023-05-27T02:33:23;7.10;;;6.47;;
27728;SDS011;15126;42.186;24.340;2023-05-27T02:35:50;6.93;;;6.33;;
27728;SDS011;15126;42.186;24.340;2023-05-27T02:38:17;6.03;;;5.53;;
27728;SDS011;15126;42.186;24.340;2023-05-27T02:40:43;7.47;;;6.73;;
27728;SDS011;15126;42.186;24.340;2023-05-27T02:43:10;10.37;;;6.90;;
27728;SDS011;15126;42.186;24.340;2023-05-27T02:45:37;7.67;;;6.30;;
27728;SDS011;15126;42.186;24.340;2023-05-27T02:48:05;7.60;;;7.00;;
27728;SDS011;15126;42.186;24.340;2023-05-27T02:50:33;7.83;;;6.13;;
27728;SDS011;15126;42.186;24.340;2023-05-27T02:53:00;10.53;;;7.73;;
27728;SDS011;15126;42.186;24.340;2023-05-27T02:55:27;9.73;;;8.10;;
27728;SDS011;15126;42.186;24.340;2023-05-27T02:57:54;6.80;;;6.13;;
27728;SDS011;15126;42.186;24.340;2023-05-27T03:00:20;8.30;;;7.27;;
27728;SDS011;15126;42.186;24.340;2023-05-27T03:02:47;12.57;;;9.07;;
27728;SDS011;15126;42.186;24.340;2023-05-27T03:05:16;6.93;;;6.23;;
27728;SDS011;15126;42.186;24.340;2023-05-27T03:07:42;7.10;;;6.03;;
27728;SDS011;15126;42.186;24.340;2023-05-27T03:10:10;7.50;;;6.80;;
27728;SDS011;15126;42.186;24.340;2023-05-27T03:12:36;6.20;;;5.67;;
27728;SDS011;15126;42.186;24.340;2023-05-27T03:15:04;12.10;;;8.03;;
27728;SDS011;15126;42.186;24.340;2023-05-27T03:17:32;8.60;;;7.80;;
27728;SDS011;15126;42.186;24.340;2023-05-27T03:20:03;8.80;;;7.40;;
27728;SDS011;15126;42.186;24.340;2023-05-27T03:22:34;8.60;;;7.10;;
27728;SDS011;15126;42.186;24.340;2023-05-27T03:25:01;7.17;;;6.37;;
27728;SDS011;15126;42.186;24.340;2023-05-27T03:27:28;7.07;;;6.40;;
27728;SDS011;15126;42.186;24.340;2023-05-27T03:29:55;7.43;;;6.63;;
27728;SDS011;15126;42.186;24.340;2023-05-27T03:32:21;8.57;;;6.87;;
27728;SDS011;15126;42.186;24.340;2023-05-27T03:34:48;7.03;;;6.33;;
27728;SDS011;15126;42.186;24.340;2023-05-27T03:37:15;8.23;;;7.43;;
27728;SDS011;15126;42.186;24.340;2023-05-27T03:39:43;10.23;;;7.37;;
27728;SDS011;15126;42.186;24.340;2023-05-27T03:42:10;8.63;;;7.83;;
27728;SDS011;15126;42.186;24.340;2023-05-27T03:44:37;7.77;;;6.93;;
27728;SDS011;15126;42.186;24.340;2023-05-27T03:47:04;8.87;;;7.83;;
27728;SDS011;15126;42.186;24.340;2023-05-27T03:49:31;7.43;;;6.73;;
27728;SDS011;15126;42.186;24.340;2023-05-27T03:51:58;10.17;;;7.10;;
27728;SDS011;15126;42.186;24.340;2023-05-27T03:54:25;8.07;;;7.23;;
27728;SDS011;15126;42.186;24.340;2023-05-27T03:56:53;7.60;;;6.40;;
27728;SDS011;15126;42.186;24.340;2023-05-27T03:59:20;7.27;;;6.27;;
27728;SDS011;15126;42.186;24.340;2023-05-27T04:01:47;12.67;;;7.80;;
27728;SDS011;15126;42.186;24.340;2023-05-27T04:04:14;7.30;;;6.70;;
27728;SDS011;15126;42.186;24.340;2023-05-27T04:06:40;7.83;;;6.90;;
27728;SDS011;15126;42.186;24.340;2023-05-27T04:09:08;8.20;;;6.27;;
27728;SDS011;15126;42.186;24.340;2023-05-27T04:11:35;7.03;;;6.33;;
27728;SDS011;15126;42.186;24.340;2023-05-27T04:14:03;10.10;;;6.43;;
27728;SDS011;15126;42.186;24.340;2023-05-27T04:16:32;6.90;;;6.17;;
27728;SDS011;15126;42.186;24.340;2023-05-27T04:19:00;11.87;;;6.00;;
27728;SDS011;15126;42.186;24.340;2023-05-27T04:21:27;8.27;;;6.27;;
27728;SDS011;15126;42.186;24.340;2023-05-27T04:23:54;10.57;;;6.00;;
27728;SDS011;15126;42.186;24.340;2023-05-27T04:26:21;8.33;;;6.43;;
27728;SDS011;15126;42.186;24.340;2023-05-27T04:28:48;8.17;;;5.83;;
27728;SDS011;15126;42.186;24.340;2023-05-27T04:31:16;11.23;;;6.50;;
27728;SDS011;15126;42.186;24.340;2023-05-27T04:33:43;9.70;;;6.13;;
27728;SDS011;15126;42.186;24.340;2023-05-27T04:36:10;6.53;;;5.93;;
27728;SDS011;15126;42.186;24.340;2023-05-27T04:38:38;7.27;;;4.97;;
27728;SDS011;15126;42.186;24.340;2023-05-27T04:41:05;5.93;;;4.77;;
27728;SDS011;15126;42.186;24.340;2023-05-27T04:43:32;5.97;;;5.47;;
27728;SDS011;15126;42.186;24.340;2023-05-27T04:45:59;4.83;;;4.43;;
27728;SDS011;15126;42.186;24.340;2023-05-27T04:48:28;6.83;;;5.33;;
27728;SDS011;15126;42.186;24.340;2023-05-27T04:50:55;5.77;;;5.20;;
27728;SDS011;15126;42.186;24.340;2023-05-27T04:53:22;5.90;;;5.17;;
27728;SDS011;15126;42.186;24.340;2023-05-27T04:55:48;5.60;;;4.93;;
27728;SDS011;15126;42.186;24.340;2023-05-27T04:58:16;5.97;;;5.33;;
27728;SDS011;15126;42.186;24.340;2023-05-27T05:00:43;8.77;;;5.60;;
27728;SDS011;15126;42.186;24.340;2023-05-27T05:03:18;7.10;;;5.00;;
27728;SDS011;15126;42.186;24.340;2023-05-27T05:05:49;9.13;;;6.97;;
27728;SDS011;15126;42.186;24.340;2023-05-27T05:08:17;6.53;;;5.93;;
27728;SDS011;15126;42.186;24.340;2023-05-27T05:10:46;6.33;;;5.60;;
27728;SDS011;15126;42.186;24.340;2023-05-27T05:13:13;8.93;;;5.67;;
27728;SDS011;15126;42.186;24.340;2023-05-27T05:15:41;9.43;;;5.33;;
27728;SDS011;15126;42.186;24.340;2023-05-27T05:18:09;8.77;;;5.57;;
27728;SDS011;15126;42.186;24.340;2023-05-27T05:20:36;5.90;;;5.23;;
27728;SDS011;15126;42.186;24.340;2023-05-27T05:23:04;8.07;;;5.67;;
27728;SDS011;15126;42.186;24.340;2023-05-27T05:25:32;7.00;;;6.00;;
27728;SDS011;15126;42.186;24.340;2023-05-27T05:28:03;8.27;;;6.70;;
27728;SDS011;15126;42.186;24.340;2023-05-27T05:30:29;6.67;;;6.00;;
27728;SDS011;15126;42.186;24.340;2023-05-27T05:32:56;11.00;;;5.27;;
27728;SDS011;15126;42.186;24.340;2023-05-27T05:35:23;8.20;;;6.27;;
27728;SDS011;15126;42.186;24.340;2023-05-27T05:37:50;6.63;;;5.07;;
27728;SDS011;15126;42.186;24.340;2023-05-27T05:40:18;6.33;;;5.73;;
27728;SDS011;15126;42.186;24.340;2023-05-27T05:42:45;14.30;;;7.80;;
27728;SDS011;15126;42.186;24.340;2023-05-27T05:45:12;7.47;;;5.30;;
27728;SDS011;15126;42.186;24.340;2023-05-27T05:47:38;5.13;;;4.47;;
27728;SDS011;15126;42.186;24.340;2023-05-27T05:50:05;6.10;;;5.27;;
27728;SDS011;15126;42.186;24.340;2023-05-27T05:52:33;7.97;;;6.00;;
27728;SDS011;15126;42.186;24.340;2023-05-27T05:55:00;5.67;;;5.13;;
27728;SDS011;15126;42.186;24.340;2023-05-27T05:57:28;13.53;;;5.67;;
27728;SDS011;15126;42.186;24.340;2023-05-27T05:59:56;6.73;;;5.73;;
27728;SDS011;15126;42.186;24.340;2023-05-27T06:02:23;4.50;;;4.00;;
27728;SDS011;15126;42.186;24.340;2023-05-27T06:04:50;4.87;;;4.47;;
27728;SDS011;15126;42.186;24.340;2023-05-27T06:07:17;6.13;;;5.60;;
27728;SDS011;15126;42.186;24.340;2023-05-27T06:09:45;6.63;;;5.93;;
27728;SDS011;15126;42.186;24.340;2023-05-27T06:12:15;4.37;;;4.07;;
27728;SDS011;15126;42.186;24.340;2023-05-27T06:14:43;7.43;;;4.33;;
27728;SDS011;15126;42.186;24.340;2023-05-27T06:17:10;6.10;;;4.93;;
27728;SDS011;15126;42.186;24.340;2023-05-27T06:19:38;8.17;;;4.77;;
27728;SDS011;15126;42.186;24.340;2023-05-27T06:22:05;6.50;;;5.57;;
27728;SDS011;15126;42.186;24.340;2023-05-27T06:24:31;15.93;;;5.63;;
27728;SDS011;15126;42.186;24.340;2023-05-27T06:26:58;7.03;;;4.27;;
27728;SDS011;15126;42.186;24.340;2023-05-27T06:29:26;5.47;;;4.70;;
27728;SDS011;15126;42.186;24.340;2023-05-27T06:31:54;5.23;;;4.83;;
27728;SDS011;15126;42.186;24.340;2023-05-27T06:34:20;4.80;;;4.50;;
27728;SDS011;15126;42.186;24.340;2023-05-27T06:36:47;4.50;;;4.20;;
27728;SDS011;15126;42.186;24.340;2023-05-27T06:39:14;7.20;;;5.13;;
27728;SDS011;15126;42.186;24.340;2023-05-27T06:41:41;4.73;;;4.33;;
27728;SDS011;15126;42.186;24.340;2023-05-27T06:44:07;3.67;;;3.37;;
27728;SDS011;15126;42.186;24.340;2023-05-27T06:46:34;6.90;;;4.03;;
27728;SDS011;15126;42.186;24.340;2023-05-27T06:49:02;5.13;;;4.37;;
27728;SDS011;15126;42.186;24.340;2023-05-27T06:51:29;4.83;;;3.67;;
27728;SDS011;15126;42.186;24.340;2023-05-27T06:53:57;4.00;;;2.87;;
27728;SDS011;15126;42.186;24.340;2023-05-27T06:56:23;3.27;;;3.00;;
27728;SDS011;15126;42.186;24.340;2023-05-27T06:58:51;3.87;;;3.47;;
27728;SDS011;15126;42.186;24.340;2023-05-27T07:01:17;3.87;;;3.47;;
27728;SDS011;15126;42.186;24.340;2023-05-27T07:03:45;5.07;;;3.97;;
27728;SDS011;15126;42.186;24.340;2023-05-27T07:06:13;5.33;;;3.77;;
27728;SDS011;15126;42.186;24.340;2023-05-27T07:08:41;3.77;;;3.47;;
27728;SDS011;15126;42.186;24.340;2023-05-27T07:11:08;6.00;;;3.63;;
27728;SDS011;15126;42.186;24.340;2023-05-27T07:13:34;7.87;;;4.13;;
27728;SDS011;15126;42.186;24.340;2023-05-27T07:16:04;4.00;;;3.40;;
27728;SDS011;15126;42.186;24.340;2023-05-27T07:18:31;3.63;;;3.37;;
27728;SDS011;15126;42.186;24.340;2023-05-27T07:20:58;5.37;;;3.80;;
27728;SDS011;15126;42.186;24.340;2023-05-27T07:23:26;4.13;;;3.50;;
27728;SDS011;15126;42.186;24.340;2023-05-27T07:25:53;4.73;;;2.83;;
27728;SDS011;15126;42.186;24.340;2023-05-27T07:28:19;5.70;;;3.50;;
27728;SDS011;15126;42.186;24.340;2023-05-27T07:30:46;5.43;;;4.13;;
27728;SDS011;15126;42.186;24.340;2023-05-27T07:33:13;4.10;;;3.80;;
27728;SDS011;15126;42.186;24.340;2023-05-27T07:35:40;3.60;;;3.40;;
27728;SDS011;15126;42.186;24.340;2023-05-27T07:38:07;4.30;;;3.33;;
27728;SDS011;15126;42.186;24.340;2023-05-27T07:40:35;3.57;;;3.27;;
27728;SDS011;15126;42.186;24.340;2023-05-27T07:43:02;6.27;;;3.70;;
27728;SDS011;15126;42.186;24.340;2023-05-27T07:45:28;3.63;;;3.17;;
27728;SDS011;15126;42.186;24.340;2023-05-27T07:47:55;3.57;;;3.30;;
27728;SDS011;15126;42.186;24.340;2023-05-27T07:50:22;7.57;;;4.10;;
27728;SDS011;15126;42.186;24.340;2023-05-27T07:52:50;4.47;;;3.57;;
27728;SDS011;15126;42.186;24.340;2023-05-27T07:55:16;5.47;;;3.30;;
27728;SDS011;15126;42.186;24.340;2023-05-27T07:57:44;3.97;;;3.37;;
27728;SDS011;15126;42.186;24.340;2023-05-27T08:00:11;3.27;;;2.97;;
27728;SDS011;15126;42.186;24.340;2023-05-27T08:02:39;5.10;;;4.60;;
27728;SDS011;15126;42.186;24.340;2023-05-27T08:05:07;4.40;;;3.80;;
27728;SDS011;15126;42.186;24.340;2023-05-27T08:07:34;7.13;;;4.40;;
27728;SDS011;15126;42.186;24.340;2023-05-27T08:10:01;3.60;;;3.30;;
27728;SDS011;15126;42.186;24.340;2023-05-27T08:12:29;4.00;;;3.70;;
27728;SDS011;15126;42.186;24.340;2023-05-27T08:14:57;3.77;;;3.47;;
27728;SDS011;15126;42.186;24.340;2023-05-27T08:17:24;5.50;;;3.90;;
27728;SDS011;15126;42.186;24.340;2023-05-27T08:19:51;5.17;;;3.67;;
27728;SDS011;15126;42.186;24.340;2023-05-27T08:22:17;5.33;;;3.20;;
27728;SDS011;15126;42.186;24.340;2023-05-27T08:24:44;3.87;;;3.57;;
27728;SDS011;15126;42.186;24.340;2023-05-27T08:27:12;2.90;;;2.73;;
27728;SDS011;15126;42.186;24.340;2023-05-27T08:29:40;6.30;;;3.53;;
27728;SDS011;15126;42.186;24.340;2023-05-27T08:32:08;3.30;;;3.10;;
27728;SDS011;15126;42.186;24.340;2023-05-27T08:34:35;5.40;;;3.33;;
27728;SDS011;15126;42.186;24.340;2023-05-27T08:37:02;3.80;;;3.50;;
27728;SDS011;15126;42.186;24.340;2023-05-27T08:39:30;7.00;;;3.47;;
27728;SDS011;15126;42.186;24.340;2023-05-27T08:41:57;5.47;;;3.10;;
27728;SDS011;15126;42.186;24.340;2023-05-27T08:44:27;6.23;;;3.63;;
27728;SDS011;15126;42.186;24.340;2023-05-27T08:46:54;6.07;;;3.03;;
27728;SDS011;15126;42.186;24.340;2023-05-27T08:49:23;2.93;;;2.73;;
27728;SDS011;15126;42.186;24.340;2023-05-27T08:51:51;3.67;;;3.37;;
27728;SDS011;15126;42.186;24.340;2023-05-27T08:54:18;4.23;;;2.53;;
27728;SDS011;15126;42.186;24.340;2023-05-27T08:56:46;3.20;;;3.00;;
27728;SDS011;15126;42.186;24.340;2023-05-27T08:59:15;3.77;;;3.47;;
27728;SDS011;15126;42.186;24.340;2023-05-27T09:01:42;3.73;;;2.87;;
27728;SDS011;15126;42.186;24.340;2023-05-27T09:04:09;3.27;;;2.97;;
27728;SDS011;15126;42.186;24.340;2023-05-27T09:06:37;3.87;;;3.40;;
27728;SDS011;15126;42.186;24.340;2023-05-27T09:09:06;5.23;;;3.20;;
27728;SDS011;15126;42.186;24.340;2023-05-27T09:11:33;4.50;;;3.20;;
27728;SDS011;15126;42.186;24.340;2023-05-27T09:14:01;4.63;;;3.07;;
27728;SDS011;15126;42.186;24.340;2023-05-27T09:16:30;4.63;;;3.07;;
27728;SDS011;15126;42.186;24.340;2023-05-27T09:18:57;3.07;;;2.77;;
27728;SDS011;15126;42.186;24.340;2023-05-27T09:21:24;4.50;;;3.03;;
27728;SDS011;15126;42.186;24.340;2023-05-27T09:23:55;3.27;;;2.97;;
27728;SDS011;15126;42.186;24.340;2023-05-27T09:26:24;3.80;;;3.30;;
27728;SDS011;15126;42.186;24.340;2023-05-27T09:28:50;3.53;;;3.23;;
27728;SDS011;15126;42.186;24.340;2023-05-27T09:31:17;3.43;;;3.13;;
27728;SDS011;15126;42.186;24.340;2023-05-27T09:33:47;3.07;;;2.50;;
27728;SDS011;15126;42.186;24.340;2023-05-27T09:36:19;3.33;;;3.03;;
27728;SDS011;15126;42.186;24.340;2023-05-27T09:38:47;3.87;;;2.97;;
27728;SDS011;15126;42.186;24.340;2023-05-27T09:41:22;5.93;;;4.00;;
27728;SDS011;15126;42.186;24.340;2023-05-27T09:43:53;3.00;;;2.80;;
27728;SDS011;15126;42.186;24.340;2023-05-27T09:46:20;3.90;;;3.47;;
27728;SDS011;15126;42.186;24.340;2023-05-27T09:48:47;6.20;;;5.60;;
27728;SDS011;15126;42.186;24.340;2023-05-27T09:51:13;12.00;;;3.63;;
27728;SDS011;15126;42.186;24.340;2023-05-27T09:53:41;6.20;;;2.83;;
27728;SDS011;15126;42.186;24.340;2023-05-27T09:56:12;5.03;;;4.60;;
27728;SDS011;15126;42.186;24.340;2023-05-27T09:58:40;3.87;;;3.20;;
27728;SDS011;15126;42.186;24.340;2023-05-27T10:01:07;2.90;;;2.60;;
27728;SDS011;15126;42.186;24.340;2023-05-27T10:03:34;2.93;;;2.63;;
27728;SDS011;15126;42.186;24.340;2023-05-27T10:06:02;3.57;;;3.23;;
27728;SDS011;15126;42.186;24.340;2023-05-27T10:08:31;5.20;;;3.47;;
27728;SDS011;15126;42.186;24.340;2023-05-27T10:10:58;29.83;;;7.93;;
27728;SDS011;15126;42.186;24.340;2023-05-27T10:13:26;3.20;;;2.77;;
27728;SDS011;15126;42.186;24.340;2023-05-27T10:15:55;2.40;;;2.20;;
27728;SDS011;15126;42.186;24.340;2023-05-27T10:18:25;6.37;;;4.17;;
27728;SDS011;15126;42.186;24.340;2023-05-27T10:20:55;3.23;;;2.67;;
27728;SDS011;15126;42.186;24.340;2023-05-27T10:23:24;2.80;;;2.47;;
27728;SDS011;15126;42.186;24.340;2023-05-27T10:25:53;2.60;;;2.40;;
27728;SDS011;15126;42.186;24.340;2023-05-27T10:28:25;3.97;;;3.10;;
27728;SDS011;15126;42.186;24.340;2023-05-27T10:31:03;3.27;;;2.70;;
27728;SDS011;15126;42.186;24.340;2023-05-27T10:33:33;9.97;;;2.30;;
27728;SDS011;15126;42.186;24.340;2023-05-27T10:36:04;3.70;;;2.73;;
27728;SDS011;15126;42.186;24.340;2023-05-27T10:38:33;3.77;;;2.20;;
27728;SDS011;15126;42.186;24.340;2023-05-27T10:41:01;3.03;;;2.70;;
27728;SDS011;15126;42.186;24.340;2023-05-27T10:43:29;3.70;;;2.97;;
27728;SDS011;15126;42.186;24.340;2023-05-27T10:46:01;4.93;;;2.47;;
27728;SDS011;15126;42.186;24.340;2023-05-27T10:48:30;5.87;;;2.80;;
27728;SDS011;15126;42.186;24.340;2023-05-27T10:50:58;4.07;;;3.27;;
27728;SDS011;15126;42.186;24.340;2023-05-27T10:53:25;3.77;;;3.37;;
27728;SDS011;15126;42.186;24.340;2023-05-27T10:55:53;2.47;;;2.27;;
27728;SDS011;15126;42.186;24.340;2023-05-27T10:58:21;3.60;;;2.73;;
27728;SDS011;15126;42.186;24.340;2023-05-27T11:00:48;3.27;;;2.97;;
27728;SDS011;15126;42.186;24.340;2023-05-27T11:03:18;4.20;;;3.77;;
27728;SDS011;15126;42.186;24.340;2023-05-27T11:05:47;4.33;;;3.93;;
27728;SDS011;15126;42.186;24.340;2023-05-27T11:08:22;5.03;;;3.50;;
27728;SDS011;15126;42.186;24.340;2023-05-27T11:10:49;3.33;;;2.93;;
27728;SDS011;15126;42.186;24.340;2023-05-27T11:13:16;7.57;;;3.20;;
27728;SDS011;15126;42.186;24.340;2023-05-27T11:15:43;5.20;;;3.47;;
27728;SDS011;15126;42.186;24.340;2023-05-27T11:18:09;3.53;;;3.23;;
27728;SDS011;15126;42.186;24.340;2023-05-27T11:20:38;3.33;;;3.10;;
27728;SDS011;15126;42.186;24.340;2023-05-27T11:23:05;4.87;;;3.23;;
27728;SDS011;15126;42.186;24.340;2023-05-27T11:25:40;6.70;;;3.40;;
27728;SDS011;15126;42.186;24.340;2023-05-27T11:28:13;2.97;;;2.77;;
27728;SDS011;15126;42.186;24.340;2023-05-27T11:30:40;2.90;;;2.70;;
27728;SDS011;15126;42.186;24.340;2023-05-27T11:33:07;3.97;;;3.40;;
27728;SDS011;15126;42.186;24.340;2023-05-27T11:35:35;5.90;;;3.30;;
27728;SDS011;15126;42.186;24.340;2023-05-27T11:38:03;3.30;;;3.00;;
27728;SDS011;15126;42.186;24.340;2023-05-27T11:40:33;4.07;;;3.67;;
27728;SDS011;15126;42.186;24.340;2023-05-27T11:43:01;3.33;;;3.03;;
27728;SDS011;15126;42.186;24.340;2023-05-27T11:48:10;3.17;;;2.90;;
27728;SDS011;15126;42.186;24.340;2023-05-27T11:50:36;4.07;;;3.43;;
27728;SDS011;15126;42.186;24.340;2023-05-27T11:53:05;3.33;;;3.03;;
27728;SDS011;15126;42.186;24.340;2023-05-27T11:55:31;5.83;;;3.33;;
27728;SDS011;15126;42.186;24.340;2023-05-27T11:57:58;3.33;;;3.03;;
27728;SDS011;15126;42.186;24.340;2023-05-27T12:00:25;2.97;;;2.77;;
27728;SDS011;15126;42.186;24.340;2023-05-27T12:02:52;3.60;;;3.30;;
27728;SDS011;15126;42.186;24.340;2023-05-27T12:05:19;3.97;;;3.27;;
27728;SDS011;15126;42.186;24.340;2023-05-27T12:07:45;2.90;;;2.67;;
27728;SDS011;15126;42.186;24.340;2023-05-27T12:10:15;3.40;;;3.10;;
27728;SDS011;15126;42.186;24.340;2023-05-27T12:12:42;3.40;;;3.10;;
27728;SDS011;15126;42.186;24.340;2023-05-27T12:15:10;3.27;;;2.67;;
27728;SDS011;15126;42.186;24.340;2023-05-27T12:17:37;6.90;;;3.00;;
27728;SDS011;15126;42.186;24.340;2023-05-27T12:20:04;4.47;;;3.50;;
27728;SDS011;15126;42.186;24.340;2023-05-27T12:22:31;4.10;;;2.93;;
27728;SDS011;15126;42.186;24.340;2023-05-27T12:24:58;4.00;;;3.60;;
27728;SDS011;15126;42.186;24.340;2023-05-27T12:27:27;3.30;;;3.00;;
27728;SDS011;15126;42.186;24.340;2023-05-27T12:29:53;3.77;;;3.40;;
27728;SDS011;15126;42.186;24.340;2023-05-27T12:32:20;3.43;;;2.93;;
27728;SDS011;15126;42.186;24.340;2023-05-27T12:34:47;5.23;;;3.30;;
27728;SDS011;15126;42.186;24.340;2023-05-27T12:37:13;2.80;;;2.60;;
27728;SDS011;15126;42.186;24.340;2023-05-27T12:39:42;3.60;;;3.37;;
27728;SDS011;15126;42.186;24.340;2023-05-27T12:42:08;4.47;;;4.00;;
27728;SDS011;15126;42.186;24.340;2023-05-27T12:44:37;5.43;;;3.87;;
27728;SDS011;15126;42.186;24.340;2023-05-27T12:47:04;4.93;;;4.53;;
27728;SDS011;15126;42.186;24.340;2023-05-27T12:49:31;3.20;;;3.00;;
27728;SDS011;15126;42.186;24.340;2023-05-27T12:51:57;4.37;;;3.33;;
27728;SDS011;15126;42.186;24.340;2023-05-27T12:54:24;5.00;;;3.87;;
27728;SDS011;15126;42.186;24.340;2023-05-27T12:56:52;6.27;;;3.63;;
27728;SDS011;15126;42.186;24.340;2023-05-27T12:59:18;4.37;;;3.67;;
27728;SDS011;15126;42.186;24.340;2023-05-27T13:01:47;6.23;;;3.50;;
27728;SDS011;15126;42.186;24.340;2023-05-27T13:04:13;4.27;;;3.97;;
27728;SDS011;15126;42.186;24.340;2023-05-27T13:06:40;4.43;;;3.50;;
27728;SDS011;15126;42.186;24.340;2023-05-27T13:09:07;4.23;;;3.80;;
27728;SDS011;15126;42.186;24.340;2023-05-27T13:11:34;4.13;;;3.30;;
27728;SDS011;15126;42.186;24.340;2023-05-27T13:14:01;4.80;;;3.57;;
27728;SDS011;15126;42.186;24.340;2023-05-27T13:16:27;3.77;;;3.47;;
27728;SDS011;15126;42.186;24.340;2023-05-27T13:18:56;3.60;;;3.00;;
27728;SDS011;15126;42.186;24.340;2023-05-27T13:21:24;4.23;;;3.70;;
27728;SDS011;15126;42.186;24.340;2023-05-27T13:23:51;4.30;;;3.53;;
27728;SDS011;15126;42.186;24.340;2023-05-27T13:26:18;4.17;;;3.30;;
27728;SDS011;15126;42.186;24.340;2023-05-27T13:28:45;5.57;;;3.53;;
27728;SDS011;15126;42.186;24.340;2023-05-27T13:31:12;4.40;;;3.67;;
27728;SDS011;15126;42.186;24.340;2023-05-27T13:33:39;3.80;;;3.43;;
27728;SDS011;15126;42.186;24.340;2023-05-27T13:36:08;11.00;;;4.40;;
27728;SDS011;15126;42.186;24.340;2023-05-27T13:38:35;4.10;;;3.70;;
27728;SDS011;15126;42.186;24.340;2023-05-27T13:41:02;4.03;;;3.63;;
27728;SDS011;15126;42.186;24.340;2023-05-27T13:43:28;5.30;;;4.17;;
27728;SDS011;15126;42.186;24.340;2023-05-27T13:45:55;5.00;;;2.93;;
27728;SDS011;15126;42.186;24.340;2023-05-27T13:48:22;3.40;;;3.20;;
27728;SDS011;15126;42.186;24.340;2023-05-27T13:50:49;4.43;;;3.17;;
27728;SDS011;15126;42.186;24.340;2023-05-27T13:53:17;9.67;;;4.57;;
27728;SDS011;15126;42.186;24.340;2023-05-27T13:55:44;5.80;;;3.83;;
27728;SDS011;15126;42.186;24.340;2023-05-27T13:58:11;3.50;;;3.20;;
27728;SDS011;15126;42.186;24.340;2023-05-27T14:00:37;5.77;;;3.67;;
27728;SDS011;15126;42.186;24.340;2023-05-27T14:03:04;3.63;;;3.20;;
27728;SDS011;15126;42.186;24.340;2023-05-27T14:05:31;4.33;;;3.93;;
27728;SDS011;15126;42.186;24.340;2023-05-27T14:07:59;4.10;;;3.43;;
27728;SDS011;15126;42.186;24.340;2023-05-27T14:10:48;4.23;;;3.30;;
27728;SDS011;15126;42.186;24.340;2023-05-27T14:13:35;3.70;;;3.40;;
27728;SDS011;15126;42.186;24.340;2023-05-27T14:16:03;3.57;;;3.20;;
27728;SDS011;15126;42.186;24.340;2023-05-27T14:18:30;4.30;;;2.83;;
27728;SDS011;15126;42.186;24.340;2023-05-27T14:20:56;3.60;;;3.33;;
27728;SDS011;15126;42.186;24.340;2023-05-27T14:23:23;6.03;;;3.87;;
27728;SDS011;15126;42.186;24.340;2023-05-27T14:25:51;4.13;;;3.77;;
27728;SDS011;15126;42.186;24.340;2023-05-27T14:28:18;3.53;;;3.23;;
27728;SDS011;15126;42.186;24.340;2023-05-27T14:30:45;3.30;;;3.10;;
27728;SDS011;15126;42.186;24.340;2023-05-27T14:33:12;4.00;;;3.13;;
27728;SDS011;15126;42.186;24.340;2023-05-27T14:35:38;4.30;;;3.90;;
27728;SDS011;15126;42.186;24.340;2023-05-27T14:38:06;7.53;;;3.60;;